Neeses, SC (29107)

2:05 PM EDT on August 25, 2016 (GMT -0400)
Foreback Place, North, SC | | Change Station

Elev 285 ft 33.64 °N, 81.15 °W | Updated 19 seconds ago

Partly Cloudy
Partly Cloudy
89.1 °F
Feels Like 85 °F
N
2.9
Wind Variable Wind from ENE
Gusts 4.9 mph

Today
High -- | Low -- °F
--% Chance of Precip.
Yesterday
High -- | Low -- °F
Precip. -- in
Pressure 30.14 in
Visibility 10.0 miles
Clouds Few 5000 ft
Few 7500 ft
Heat Index 85 °F
Dew Point 26 °F
Humidity 10%
Rainfall 0.00 in
Snow Depth Not available.
6:54 AM 7:58 PM
Last Quarter, 43% visible
METAR KOGB 251753Z AUTO VRB03KT 10SM FEW050 FEW075 32/18 A3014 RMK AO2 SLP204 T03220178 10322 20206 58020
Pressure 30.14 in
Visibility 10.0 miles
Clouds Few 5000 ft
Few 7500 ft
Heat Index 85 °F
Dew Point 26 °F
Humidity 10%
Rainfall 0.00 in
Snow Depth Not available.
6:54 AM 7:58 PM
Last Quarter, 43% visible
METAR KOGB 251753Z AUTO VRB03KT 10SM FEW050 FEW075 32/18 A3014 RMK AO2 SLP204 T03220178 10322 20206 58020
A tropical disturbance pushing toward the Bahamas, is expected to develop into a tropical depression or storm, and will likely target Florida and the Gulf Coast this weekend into next week.

Right now, the disturbance remains a broad area of low pressure pushing through the Dominican Republic and Haiti, headed toward the southeast Bahamas. Rainfall totals over 3 inches (with locally higher amounts) are expected in HispaƱiola, particularly over elevated terrain.

10-Day Weather Forecast

Almanac

Astronomy

Aug. 25, 2016 Rise Set
Actual Time
Civil Twilight
Nautical Twilight
Astronomical Twilight
Moon
Length of Visible Light
Length of Day
Tomorrow will be .
, % of the Moon is Illuminated

Today's Extremes

State Highs State Lows

Community

WunderPhotos

Upload Photos

1,934,890 photos uploaded!

WunderBlog® & News

Nearby

Air Quality

  Air Quality AQ Index Pollutant
Not available.

Snow Depth

Station Depth Elevation

Earthquake Activity

City Distance Mag. Time & Date
Minimum magnitude displayed is 2.5.

Coastal Water Temperatures

Place Temperature

Stations

Nearby Weather Stations

Station Location Temp. Windchill Dew Point Humidity Wind Precip. Elev Updated Type
                   

Watches & Warnings

There are currently no watches in effect.